首页
METAR-TAF:

METAR-TAF

机场 :

連科蘭國際機場

連科蘭, 阿塞拜疆

纬度: 38-44-47N, 经度: 048-49-04E, 海拔: 9米

当前天气观测

该预报发布于15分钟前的16:00 UTC
风速5节,风向
温度 6°C
湿度 87%
气压 1034 hPa
能見度: 9000
阴天层高于2800英尺

METAR: UBBL 081600Z 19005KT 9000 OVC028 06/04 Q1034 R33/CLRD// NOSIG RMK MT OBSC

时间: 20:15 (16:15 UTC)

预报

该预报发布于5小时和8分钟前的11:07 UTC
预报有效从08日的 12点(UTC)到 09日的 12点(UTC)
风速6节,风向东南
能見度: 8000
散云层高于1000英尺
阴天层高于2000英尺
短暂存在
从 08日的 12点(UTC)到 08日的 20点(UTC)
风速10节,风向
多云层高于600英尺
小雨
短暂存在
从 08日的 20点(UTC)到 09日的 04点(UTC)
风速4节,风向多变
能見度: 3000
多云层高于400英尺
轻雾

TAF: UBBL 081107Z 0812/0912 14006KT 8000 SCT010 OVC020 TX05/0812Z TN03/0902Z TEMPO 0812/0820 18010KT -RA BKN006 TEMPO 0820/0904 VRB04KT 3000 BR BKN004

超过4000个机场的气象观测和天气预报(METAR&TAF报告)。

可查询的气象台以黄色和红色小点在地图上表示。

将鼠标移到小点上方,可查看气象台名称。

然后点击查看天气观测和预报。

如需切换地图:点击带黑十字的绿色按钮放大地图;点击带横线的绿色按钮缩小地图;或者点击绿色箭头查看邻近地区的地图。


METAR-TAF: